Terminal Aerodrome Forecast
Issued by NWS Anchorage, AK

Home | Current Version | Previous Version | Text Only | Print | Product List | Glossary On
Versions: 1 2 3 4 5 6 7 8 9 10 11 12 13 14 15 16 17 18 19 20 21 22 23 24 25
000
FTAK31 PANC 160205 AAA
TAFANC
TAF AMD
PANC 160205Z 1602/1706 33010KT P6SM VCSH SCT050 BKN060
      WS020/12048KT
      TEMPO 1602/1606 6SM -SN BKN045
     FM160700 17005KT P6SM VCSH SCT040 BKN070
     FM160800 17014G24KT 6SM -SHSNRA BKN050
     FM161500 18011KT P6SM VCSH OVC045=

USA.gov is the U.S. government's official web portal to all federal, state and local government web resources and services.